Time;durP1;ratioP1;P1;durP2;ratioP2;P2;SDS_P1;SDS_P2;PMS_P1;PMS_P2;Temp;Humidity;BMP_temperature;BMP_pressure;BME280_temperature;BME280_humidity;BME280_pressure;Samples;Min_cycle;Max_cycle;Signal;HPM_P1;HPM_P2
2021/12/29 00:02:07;;;;;;;13.17;8.13;;;;;;;;;;6375493;27;20034;-66
2021/12/29 00:05:11;;;;;;;13.35;7.45;;;;;;;;;;6394449;27;20297;-66
2021/12/29 00:08:14;;;;;;;13.65;8.05;;;;;;;;;;6396680;27;20509;-66
2021/12/29 00:11:18;;;;;;;15.57;8.35;;;;;;;;;;6378034;27;20051;-66
2021/12/29 00:14:21;;;;;;;15.70;8.77;;;;;;;;;;6395782;27;20041;-66
2021/12/29 00:17:26;;;;;;;15.70;8.52;;;;;;;;;;6377970;27;20038;-66
2021/12/29 00:20:31;;;;;;;15.60;8.68;;;;;;;;;;6396386;27;20484;-66
2021/12/29 00:23:35;;;;;;;17.00;9.13;;;;;;;;;;6395244;27;20065;-66
2021/12/29 00:26:59;;;;;;;15.63;8.77;;;;;;;;;;6376699;27;20042;-66
2021/12/29 00:30:04;;;;;;;15.65;8.98;;;;;;;;;;6396026;27;20055;-66
2021/12/29 00:33:25;;;;;;;15.85;8.55;;;;;;;;;;6396042;27;20042;-66
2021/12/29 00:36:47;;;;;;;19.90;9.05;;;;;;;;;;6395261;27;20154;-66
2021/12/29 00:40:09;;;;;;;19.48;9.43;;;;;;;;;;6394694;27;20091;-66
2021/12/29 00:43:32;;;;;;;16.05;9.43;;;;;;;;;;6395112;27;20061;-66
2021/12/29 00:46:55;;;;;;;17.98;10.35;;;;;;;;;;6395545;27;20050;-66
2021/12/29 00:49:59;;;;;;;16.52;9.38;;;;;;;;;;6376710;27;20400;-66
2021/12/29 00:53:04;;;;;;;17.60;9.95;;;;;;;;;;6376042;27;20046;-66
2021/12/29 00:56:07;;;;;;;17.33;9.50;;;;;;;;;;6376704;27;20170;-66
2021/12/29 00:59:11;;;;;;;19.38;10.18;;;;;;;;;;6395862;27;20526;-65
2021/12/29 01:02:14;;;;;;;15.45;9.18;;;;;;;;;;6375556;27;20103;-66
2021/12/29 01:05:18;;;;;;;17.02;9.63;;;;;;;;;;6375662;27;20046;-66
2021/12/29 01:08:21;;;;;;;13.77;8.02;;;;;;;;;;6377072;27;20042;-66
2021/12/29 01:11:24;;;;;;;15.75;9.13;;;;;;;;;;6394240;27;20047;-66
2021/12/29 01:14:31;;;;;;;;;;;;;;;;;;6376170;27;20046;-66
2021/12/29 01:17:35;;;;;;;17.05;8.55;;;;;;;;;;6395158;27;19923;-65
2021/12/29 01:20:40;;;;;;;18.95;9.45;;;;;;;;;;6394815;27;20095;-66
2021/12/29 01:23:43;;;;;;;18.85;9.63;;;;;;;;;;6393657;27;20038;-66
2021/12/29 01:26:49;;;;;;;20.55;10.20;;;;;;;;;;6394377;27;20054;-66
2021/12/29 01:29:52;;;;;;;17.75;9.63;;;;;;;;;;6394650;27;20039;-66
2021/12/29 01:32:57;;;;;;;19.70;10.43;;;;;;;;;;6375047;27;20055;-66
2021/12/29 01:36:00;;;;;;;16.92;9.32;;;;;;;;;;6394585;27;20042;-66
2021/12/29 01:39:04;;;;;;;18.88;10.23;;;;;;;;;;6375815;27;20051;-66
2021/12/29 01:42:09;;;;;;;19.63;10.27;;;;;;;;;;6393989;27;20059;-66
2021/12/29 01:45:14;;;;;;;19.70;10.18;;;;;;;;;;6374745;27;20055;-65
2021/12/29 01:48:19;;;;;;;20.40;10.30;;;;;;;;;;6375723;27;20042;-65
2021/12/29 01:51:22;;;;;;;20.25;10.00;;;;;;;;;;6375797;27;20091;-65
2021/12/29 01:54:25;;;;;;;18.38;9.15;;;;;;;;;;6392914;27;20046;-65
2021/12/29 01:57:31;;;;;;;19.00;9.73;;;;;;;;;;6374892;27;20042;-65
2021/12/29 02:00:36;;;;;;;19.52;9.88;;;;;;;;;;6375543;27;20400;-66
2021/12/29 02:03:40;;;;;;;18.87;9.70;;;;;;;;;;6375093;27;20549;-65
2021/12/29 02:06:43;;;;;;;20.73;10.43;;;;;;;;;;6373562;27;20058;-65
2021/12/29 02:09:46;;;;;;;18.77;10.05;;;;;;;;;;6393379;27;20054;-65
2021/12/29 02:12:49;;;;;;;21.23;10.65;;;;;;;;;;6372752;27;20408;-65
2021/12/29 02:15:52;;;;;;;20.95;10.77;;;;;;;;;;6389114;27;20095;-65
2021/12/29 02:18:59;;;;;;;20.10;10.63;;;;;;;;;;6390234;27;20522;-65
2021/12/29 02:22:09;;;;;;;19.42;10.75;;;;;;;;;;6372969;27;20472;-65
2021/12/29 02:25:34;;;;;;;21.33;10.23;;;;;;;;;;6390986;27;20042;-65
2021/12/29 02:28:40;;;;;;;19.92;10.35;;;;;;;;;;6392585;27;20068;-66
2021/12/29 02:31:43;;;;;;;;;;;;;;;;;;6393517;27;20035;-65
2021/12/29 02:34:49;;;;;;;20.00;10.77;;;;;;;;;;6391665;27;19919;-64
2021/12/29 02:37:53;;;;;;;22.85;11.00;;;;;;;;;;6390175;27;20417;-66
2021/12/29 02:40:58;;;;;;;23.77;11.35;;;;;;;;;;6372056;27;20047;-67
2021/12/29 02:44:01;;;;;;;19.25;10.63;;;;;;;;;;6393288;27;20047;-67
2021/12/29 02:47:07;;;;;;;22.10;11.20;;;;;;;;;;6393277;27;20480;-67
2021/12/29 02:50:14;;;;;;;24.67;11.63;;;;;;;;;;6372622;27;20050;-67
2021/12/29 02:53:21;;;;;;;23.58;11.75;;;;;;;;;;6371344;27;20042;-66
2021/12/29 02:56:26;;;;;;;29.50;11.60;;;;;;;;;;6371967;27;20141;-67
2021/12/29 02:59:29;;;;;;;26.97;12.20;;;;;;;;;;6389655;27;20069;-66
2021/12/29 03:02:32;;;;;;;23.23;11.20;;;;;;;;;;6389802;27;20507;-67
2021/12/29 03:05:37;;;;;;;24.45;11.43;;;;;;;;;;6373363;27;20374;-66
2021/12/29 03:08:44;;;;;;;23.93;11.13;;;;;;;;;;6374418;27;20404;-66
2021/12/29 03:11:47;;;;;;;24.05;11.80;;;;;;;;;;6392013;27;20046;-66
2021/12/29 03:14:51;;;;;;;27.90;11.18;;;;;;;;;;6392726;27;20121;-66
2021/12/29 03:17:57;;;;;;;25.05;11.43;;;;;;;;;;6374759;27;20480;-67
2021/12/29 03:21:00;;;;;;;29.10;11.68;;;;;;;;;;6373450;27;20501;-67
2021/12/29 03:24:05;;;;;;;28.58;12.07;;;;;;;;;;6392306;27;20545;-66
2021/12/29 03:27:08;;;;;;;27.63;12.10;;;;;;;;;;6394921;27;20449;-66
2021/12/29 03:30:13;;;;;;;31.13;12.20;;;;;;;;;;6379128;27;20043;-66
2021/12/29 03:33:16;;;;;;;29.08;12.55;;;;;;;;;;6396472;27;20524;-67
2021/12/29 03:36:20;;;;;;;28.50;12.43;;;;;;;;;;6397105;27;20481;-67
2021/12/29 03:39:27;;;;;;;29.98;12.55;;;;;;;;;;6378863;27;20558;-67
2021/12/29 03:42:30;;;;;;;28.50;12.10;;;;;;;;;;6396038;27;20058;-67
2021/12/29 03:45:33;;;;;;;26.15;10.80;;;;;;;;;;6396722;27;20488;-66
2021/12/29 03:48:37;;;;;;;26.08;11.43;;;;;;;;;;6397185;27;20407;-66
2021/12/29 03:51:41;;;;;;;26.92;12.50;;;;;;;;;;6377982;27;20480;-66
2021/12/29 03:54:46;;;;;;;27.13;11.10;;;;;;;;;;6377654;27;20042;-66
2021/12/29 03:57:49;;;;;;;28.38;12.48;;;;;;;;;;6396615;27;20046;-66
2021/12/29 04:00:56;;;;;;;25.25;11.02;;;;;;;;;;6378346;27;20367;-66
2021/12/29 04:04:02;;;;;;;30.85;12.60;;;;;;;;;;6396334;27;20353;-66
2021/12/29 04:07:05;;;;;;;28.17;11.88;;;;;;;;;;6396129;27;20046;-66
2021/12/29 04:10:10;;;;;;;27.95;11.57;;;;;;;;;;6396642;27;20121;-67
2021/12/29 04:13:14;;;;;;;29.23;11.77;;;;;;;;;;6395953;27;20067;-66
2021/12/29 04:16:18;;;;;;;30.98;12.98;;;;;;;;;;6393833;27;20043;-66
2021/12/29 04:19:40;;;;;;;23.80;11.30;;;;;;;;;;6375914;27;20050;-66
2021/12/29 04:22:43;;;;;;;24.27;11.93;;;;;;;;;;6377886;27;20042;-66
2021/12/29 04:25:50;;;;;;;25.90;12.70;;;;;;;;;;6376654;27;20050;-66
2021/12/29 04:28:53;;;;;;;23.08;11.68;;;;;;;;;;6377015;27;20427;-66
2021/12/29 04:31:59;;;;;;;26.67;11.65;;;;;;;;;;6377306;27;20047;-66
2021/12/29 04:35:02;;;;;;;28.20;12.10;;;;;;;;;;6395443;27;20051;-66
2021/12/29 04:38:05;;;;;;;26.42;12.40;;;;;;;;;;6394153;27;20054;-66
2021/12/29 04:41:09;;;;;;;25.38;11.80;;;;;;;;;;6374990;27;20066;-67
2021/12/29 04:44:12;;;;;;;27.95;12.15;;;;;;;;;;6392915;27;20054;-67
2021/12/29 04:47:15;;;;;;;32.20;13.55;;;;;;;;;;6392065;27;20046;-66
2021/12/29 04:50:25;;;;;;;30.13;13.55;;;;;;;;;;6392140;27;20093;-66
2021/12/29 04:53:30;;;;;;;32.88;12.00;;;;;;;;;;6375362;27;20396;-66
2021/12/29 04:56:36;;;;;;;26.65;12.30;;;;;;;;;;6375735;27;20058;-66
2021/12/29 04:59:39;;;;;;;30.90;12.75;;;;;;;;;;6394543;27;20134;-67
2021/12/29 05:02:45;;;;;;;29.48;12.45;;;;;;;;;;6395055;27;20046;-66
2021/12/29 05:08:24;;;;;;;33.40;12.82;;;;;;;;;;6376799;27;20050;-66
2021/12/29 05:09:18;;;;;;;32.33;12.88;;;;;;;;;;6375744;27;20050;-66
2021/12/29 05:12:22;;;;;;;30.73;12.13;;;;;;;;;;6394454;27;20039;-66
2021/12/29 05:15:25;;;;;;;27.63;11.77;;;;;;;;;;6394811;27;20095;-66
2021/12/29 05:18:29;;;;;;;29.90;12.60;;;;;;;;;;6376159;27;20887;-67
2021/12/29 05:21:34;;;;;;;27.98;12.13;;;;;;;;;;6393924;27;20404;-66
2021/12/29 05:24:38;;;;;;;32.88;13.30;;;;;;;;;;6394310;27;20039;-67
2021/12/29 05:27:42;;;;;;;30.08;12.90;;;;;;;;;;6376393;27;20050;-66
2021/12/29 05:30:46;;;;;;;31.50;12.73;;;;;;;;;;6374981;27;20057;-66
2021/12/29 05:33:49;;;;;;;37.17;13.95;;;;;;;;;;6394429;27;20057;-66
2021/12/29 05:36:52;;;;;;;30.85;13.57;;;;;;;;;;6394432;27;20084;-66
2021/12/29 05:39:55;;;;;;;31.23;13.35;;;;;;;;;;6393941;27;20402;-66
2021/12/29 05:43:02;;;;;;;37.30;14.85;;;;;;;;;;6374640;27;20078;-66
2021/12/29 05:46:05;;;;;;;26.95;12.63;;;;;;;;;;6375373;27;20100;-66
2021/12/29 05:49:08;;;;;;;30.58;12.15;;;;;;;;;;6394206;27;20407;-66
2021/12/29 05:52:13;;;;;;;34.80;13.93;;;;;;;;;;6393098;27;20046;-65
2021/12/29 05:55:18;;;;;;;34.05;12.60;;;;;;;;;;6394290;27;20042;-67
2021/12/29 05:58:22;;;;;;;30.67;13.20;;;;;;;;;;6375562;27;20054;-66
2021/12/29 06:01:25;;;;;;;35.80;14.82;;;;;;;;;;6393388;27;20087;-66
2021/12/29 06:04:28;;;;;;;30.10;12.07;;;;;;;;;;6393150;27;20416;-66
2021/12/29 06:07:31;;;;;;;32.30;13.77;;;;;;;;;;6393547;27;20498;-66
2021/12/29 06:10:37;;;;;;;33.15;13.00;;;;;;;;;;6393776;27;20064;-66
2021/12/29 06:13:41;;;;;;;32.40;13.48;;;;;;;;;;6374094;27;20038;-67
2021/12/29 06:16:44;;;;;;;27.35;11.98;;;;;;;;;;6374858;27;20420;-66
2021/12/29 06:19:46;;;;;;;23.33;10.55;;;;;;;;;;6393898;27;20212;-66
2021/12/29 06:22:50;;;;;;;22.60;11.05;;;;;;;;;;6392866;27;20046;-66
2021/12/29 06:25:55;;;;;;;22.23;10.23;;;;;;;;;;6392991;27;20125;-66
2021/12/29 06:28:59;;;;;;;18.67;9.25;;;;;;;;;;6375031;27;20074;-65
2021/12/29 06:32:02;;;;;;;20.85;9.63;;;;;;;;;;6375220;27;20141;-65
2021/12/29 06:35:07;;;;;;;21.10;9.63;;;;;;;;;;6392631;27;20046;-66
2021/12/29 06:38:10;;;;;;;21.95;9.65;;;;;;;;;;6374442;27;20054;-66
2021/12/29 06:41:15;;;;;;;23.95;10.82;;;;;;;;;;6374892;27;20504;-66
2021/12/29 06:44:19;;;;;;;21.33;9.63;;;;;;;;;;6373887;27;20122;-66
2021/12/29 06:47:26;;;;;;;24.48;10.07;;;;;;;;;;6374374;27;20688;-66
2021/12/29 06:50:29;;;;;;;22.40;11.50;;;;;;;;;;6393185;27;20379;-66
2021/12/29 06:53:32;;;;;;;21.55;10.05;;;;;;;;;;6374348;27;20042;-66
2021/12/29 06:56:35;;;;;;;27.45;11.38;;;;;;;;;;6392449;27;20039;-67
2021/12/29 06:59:42;;;;;;;22.55;10.48;;;;;;;;;;6374344;27;20046;-66
2021/12/29 07:02:47;;;;;;;25.25;10.88;;;;;;;;;;6396164;27;20047;-66
2021/12/29 07:05:50;;;;;;;23.98;10.52;;;;;;;;;;6396880;27;20046;-66
2021/12/29 07:08:54;;;;;;;26.33;11.32;;;;;;;;;;6397600;27;20487;-66
2021/12/29 07:11:57;;;;;;;26.63;11.48;;;;;;;;;;6398294;27;20099;-67
2021/12/29 07:15:02;;;;;;;26.92;12.23;;;;;;;;;;6397376;27;20034;-67
2021/12/29 07:18:05;;;;;;;25.85;11.27;;;;;;;;;;6378497;27;20050;-66
2021/12/29 07:21:08;;;;;;;27.95;11.68;;;;;;;;;;6397536;27;20049;-66
2021/12/29 07:24:11;;;;;;;31.13;12.73;;;;;;;;;;6397686;27;20043;-67
2021/12/29 07:27:14;;;;;;;26.33;12.02;;;;;;;;;;6396540;27;20042;-66
2021/12/29 07:30:19;;;;;;;26.92;11.57;;;;;;;;;;6397356;27;20099;-66
2021/12/29 07:33:21;;;;;;;29.17;12.70;;;;;;;;;;6379079;27;20050;-66
2021/12/29 07:36:24;;;;;;;27.30;11.43;;;;;;;;;;6396607;27;20042;-66
2021/12/29 07:39:28;;;;;;;27.70;12.38;;;;;;;;;;6396597;27;20100;-66
2021/12/29 07:42:31;;;;;;;25.73;10.90;;;;;;;;;;6378363;27;20092;-67
2021/12/29 07:45:41;;;;;;;28.30;11.90;;;;;;;;;;6378474;27;20069;-67
2021/12/29 07:48:44;;;;;;;29.40;11.93;;;;;;;;;;6396269;27;20046;-65
2021/12/29 07:51:47;;;;;;;25.30;11.60;;;;;;;;;;6378026;27;20047;-67
2021/12/29 07:54:50;;;;;;;27.33;11.10;;;;;;;;;;6397285;27;20046;-67
2021/12/29 07:57:53;;;;;;;26.75;11.73;;;;;;;;;;6377464;27;20050;-67
2021/12/29 08:00:57;;;;;;;26.50;11.77;;;;;;;;;;6396519;27;20687;-67
2021/12/29 08:04:01;;;;;;;25.65;12.00;;;;;;;;;;6396525;27;20420;-67
2021/12/29 08:07:04;;;;;;;25.55;11.52;;;;;;;;;;6396343;27;20051;-67
2021/12/29 08:10:08;;;;;;;26.50;11.57;;;;;;;;;;6395715;27;20418;-67
2021/12/29 08:13:11;;;;;;;28.02;11.93;;;;;;;;;;6395115;27;20047;-67
2021/12/29 08:16:15;;;;;;;26.88;11.10;;;;;;;;;;6396567;27;20541;-67
2021/12/29 08:19:18;;;;;;;23.42;11.05;;;;;;;;;;6395314;27;20043;-67
2021/12/29 08:22:21;;;;;;;23.10;10.95;;;;;;;;;;6395765;27;20046;-67
2021/12/29 08:25:24;;;;;;;26.05;11.75;;;;;;;;;;6396220;27;20065;-67
2021/12/29 08:28:27;;;;;;;30.20;12.35;;;;;;;;;;6376941;27;20049;-67
2021/12/29 08:31:33;;;;;;;26.60;12.48;;;;;;;;;;6376676;27;20504;-68
2021/12/29 08:34:38;;;;;;;27.33;12.63;;;;;;;;;;6377375;27;20484;-67
2021/12/29 08:37:44;;;;;;;26.50;12.30;;;;;;;;;;6377978;27;20399;-67
2021/12/29 08:40:47;;;;;;;27.00;13.05;;;;;;;;;;6394698;27;20053;-67
2021/12/29 08:43:50;;;;;;;29.45;12.35;;;;;;;;;;6394977;27;20054;-66
2021/12/29 08:46:54;;;;;;;29.38;13.35;;;;;;;;;;6395449;27;20119;-66
2021/12/29 08:49:57;;;;;;;26.67;12.57;;;;;;;;;;6395001;27;20050;-66
2021/12/29 08:53:02;;;;;;;26.02;12.57;;;;;;;;;;6376418;27;20172;-66
2021/12/29 08:56:05;;;;;;;29.63;13.57;;;;;;;;;;6395752;27;20042;-66
2021/12/29 08:59:12;;;;;;;26.75;12.15;;;;;;;;;;6376787;27;20080;-67
2021/12/29 09:02:16;;;;;;;26.83;11.80;;;;;;;;;;6394229;27;20054;-67
2021/12/29 09:05:22;;;;;;;25.63;12.43;;;;;;;;;;6394638;27;20043;-67
2021/12/29 09:08:25;;;;;;;26.60;12.95;;;;;;;;;;6395141;27;20065;-67
2021/12/29 09:11:30;;;;;;;22.20;11.52;;;;;;;;;;6375683;27;20423;-67
2021/12/29 09:14:33;;;;;;;24.17;11.82;;;;;;;;;;6394535;27;20050;-66
2021/12/29 09:17:37;;;;;;;23.08;11.15;;;;;;;;;;6376213;27;20047;-67
2021/12/29 09:20:45;;;;;;;21.98;11.02;;;;;;;;;;6394458;27;20047;-67
2021/12/29 09:23:48;;;;;;;22.40;11.93;;;;;;;;;;6393836;27;20064;-67
2021/12/29 09:26:51;;;;;;;25.63;11.40;;;;;;;;;;6393764;27;20046;-66
2021/12/29 09:29:55;;;;;;;26.92;12.23;;;;;;;;;;6395314;27;20129;-67
2021/12/29 09:33:00;;;;;;;18.48;9.43;;;;;;;;;;6393487;27;20038;-67
2021/12/29 09:36:06;;;;;;;20.45;11.20;;;;;;;;;;6375306;27;20050;-67
2021/12/29 09:39:09;;;;;;;22.23;10.68;;;;;;;;;;6394222;27;20380;-65
2021/12/29 09:42:12;;;;;;;20.65;10.30;;;;;;;;;;6393257;27;20133;-66
2021/12/29 09:45:16;;;;;;;23.85;10.50;;;;;;;;;;6393376;27;20069;-66
2021/12/29 09:48:20;;;;;;;23.42;11.73;;;;;;;;;;6393492;27;20407;-66
2021/12/29 09:51:24;;;;;;;21.38;11.27;;;;;;;;;;6394239;27;20038;-66
2021/12/29 09:54:29;;;;;;;23.65;11.50;;;;;;;;;;6374387;27;20179;-66
2021/12/29 09:57:35;;;;;;;22.55;11.80;;;;;;;;;;6374922;27;20047;-66
2021/12/29 10:00:39;;;;;;;22.35;11.60;;;;;;;;;;6375338;27;20480;-66
2021/12/29 10:03:44;;;;;;;24.83;13.15;;;;;;;;;;6374861;27;20039;-66
2021/12/29 10:06:47;;;;;;;25.63;13.98;;;;;;;;;;6374509;27;20043;-66
2021/12/29 10:09:50;;;;;;;23.77;12.43;;;;;;;;;;6393209;27;20050;-66
2021/12/29 10:12:56;;;;;;;23.30;12.20;;;;;;;;;;6375247;27;20453;-66
2021/12/29 10:16:03;;;;;;;23.65;12.02;;;;;;;;;;6373978;27;20054;-65
2021/12/29 10:19:12;;;;;;;25.00;11.93;;;;;;;;;;6374568;27;20050;-67
2021/12/29 10:22:15;;;;;;;;;;;;;;;;;;6394116;27;20446;-68
2021/12/29 10:25:19;;;;;;;19.40;11.10;;;;;;;;;;6374334;27;19930;-67
2021/12/29 10:28:24;;;;;;;23.35;12.20;;;;;;;;;;6374342;27;20065;-67
2021/12/29 10:31:28;;;;;;;21.90;11.30;;;;;;;;;;6374580;27;20049;-66
2021/12/29 10:34:33;;;;;;;25.55;13.38;;;;;;;;;;6374838;27;20046;-66
2021/12/29 10:37:36;;;;;;;27.42;15.50;;;;;;;;;;6376250;27;20106;-67
2021/12/29 10:40:39;;;;;;;26.88;15.02;;;;;;;;;;6397993;27;20046;-66
2021/12/29 10:43:50;;;;;;;28.65;15.02;;;;;;;;;;6380016;27;20069;-66
2021/12/29 10:46:56;;;;;;;32.58;17.05;;;;;;;;;;6379253;27;20078;-65
2021/12/29 10:49:59;;;;;;;;;;;;;;;;;;6398427;27;20058;-66
2021/12/29 10:53:07;;;;;;;26.33;14.35;;;;;;;;;;6397896;27;20368;-65
2021/12/29 10:56:19;;;;;;;29.20;16.00;;;;;;;;;;6398321;27;20404;-65
2021/12/29 10:59:30;;;;;;;30.65;16.40;;;;;;;;;;6397009;27;20050;-67
2021/12/29 11:02:35;;;;;;;35.40;17.85;;;;;;;;;;6397745;27;20477;-67
2021/12/29 11:05:39;;;;;;;41.20;20.00;;;;;;;;;;6379336;27;20102;-68
2021/12/29 11:08:48;;;;;;;36.72;19.85;;;;;;;;;;6397367;27;20396;-66
2021/12/29 11:11:51;;;;;;;39.40;20.90;;;;;;;;;;6397082;27;20084;-66
2021/12/29 11:14:54;;;;;;;39.35;21.15;;;;;;;;;;6397720;27;20046;-65
2021/12/29 11:18:01;;;;;;;39.42;20.00;;;;;;;;;;6397811;27;20043;-65
2021/12/29 11:21:04;;;;;;;45.53;23.40;;;;;;;;;;6377994;27;20039;-65
2021/12/29 11:24:15;;;;;;;41.00;21.25;;;;;;;;;;6397234;27;20043;-66
2021/12/29 11:27:19;;;;;;;40.25;20.33;;;;;;;;;;6378487;27;20065;-65
2021/12/29 11:30:22;;;;;;;44.15;21.52;;;;;;;;;;6378263;27;20051;-66
2021/12/29 11:33:25;;;;;;;37.95;19.95;;;;;;;;;;6377913;27;20042;-65
2021/12/29 11:36:28;;;;;;;42.10;21.83;;;;;;;;;;6378086;27;20042;-68
2021/12/29 11:39:34;;;;;;;40.45;21.02;;;;;;;;;;6396206;27;20049;-68
2021/12/29 11:42:40;;;;;;;43.65;20.40;;;;;;;;;;6395324;27;20064;-67
2021/12/29 11:45:43;;;;;;;39.35;19.88;;;;;;;;;;6397031;27;20125;-67
2021/12/29 11:48:52;;;;;;;35.10;18.98;;;;;;;;;;6396773;27;20107;-67
2021/12/29 11:51:58;;;;;;;34.15;18.88;;;;;;;;;;6377940;27;20118;-67
2021/12/29 11:55:06;;;;;;;34.63;19.40;;;;;;;;;;6396302;27;20565;-67
2021/12/29 11:58:13;;;;;;;40.47;19.88;;;;;;;;;;6396225;27;20043;-67
2021/12/29 12:01:17;;;;;;;37.45;18.70;;;;;;;;;;6378242;27;20099;-68
2021/12/29 12:04:21;;;;;;;36.33;19.40;;;;;;;;;;6376901;27;20053;-67
2021/12/29 12:07:24;;;;;;;34.67;17.27;;;;;;;;;;6377542;27;20042;-67
2021/12/29 12:10:35;;;;;;;39.45;18.85;;;;;;;;;;6377726;27;20400;-68
2021/12/29 12:13:38;;;;;;;35.55;18.42;;;;;;;;;;6395906;27;20046;-67
2021/12/29 12:16:47;;;;;;;38.25;18.52;;;;;;;;;;6377233;27;20118;-67
2021/12/29 12:19:59;;;;;;;39.60;18.60;;;;;;;;;;6395790;27;20031;-67
2021/12/29 12:23:01;;;;;;;43.42;19.85;;;;;;;;;;6396202;27;20042;-67
2021/12/29 12:26:09;;;;;;;36.55;18.58;;;;;;;;;;6395002;27;20043;-68
2021/12/29 12:29:14;;;;;;;40.00;19.33;;;;;;;;;;6377058;27;20046;-67
2021/12/29 12:32:19;;;;;;;35.60;18.07;;;;;;;;;;6396070;27;20051;-67
2021/12/29 12:35:29;;;;;;;37.40;17.95;;;;;;;;;;6376873;27;20107;-66
2021/12/29 12:38:36;;;;;;;38.22;19.33;;;;;;;;;;6376167;27;20051;-67
2021/12/29 12:41:41;;;;;;;42.28;19.45;;;;;;;;;;6395068;27;20046;-67
2021/12/29 12:44:46;;;;;;;37.30;19.98;;;;;;;;;;6395858;27;20050;-67
2021/12/29 12:47:49;;;;;;;43.00;19.85;;;;;;;;;;6394716;27;20504;-65
2021/12/29 12:50:53;;;;;;;39.22;18.17;;;;;;;;;;6376886;27;20042;-66
2021/12/29 12:53:56;;;;;;;35.38;18.90;;;;;;;;;;6395282;27;20034;-68
2021/12/29 12:57:04;;;;;;;32.63;17.40;;;;;;;;;;6396708;27;20107;-65
2021/12/29 13:00:17;;;;;;;29.65;16.27;;;;;;;;;;6395529;27;20116;-66
2021/12/29 13:03:23;;;;;;;32.33;15.88;;;;;;;;;;6397342;27;20043;-67
2021/12/29 13:06:31;;;;;;;28.00;15.27;;;;;;;;;;6396776;27;20070;-67
2021/12/29 13:09:45;;;;;;;28.50;14.70;;;;;;;;;;6375779;27;20484;-67
2021/12/29 13:12:57;;;;;;;28.40;14.68;;;;;;;;;;6388424;27;20103;-66
2021/12/29 13:16:01;;;;;;;26.88;13.70;;;;;;;;;;6394322;27;20055;-65
2021/12/29 13:19:08;;;;;;;30.42;14.73;;;;;;;;;;6376200;27;20049;-66
2021/12/29 13:22:22;;;;;;;27.08;14.45;;;;;;;;;;6375499;27;20054;-66
2021/12/29 13:25:28;;;;;;;24.83;12.68;;;;;;;;;;6375154;27;20050;-66
2021/12/29 13:28:33;;;;;;;25.42;13.23;;;;;;;;;;6375826;27;20374;-65
2021/12/29 13:31:36;;;;;;;25.95;14.40;;;;;;;;;;6393112;27;20047;-66
2021/12/29 13:34:39;;;;;;;27.30;13.98;;;;;;;;;;6389672;27;21293;-65
2021/12/29 13:37:42;;;;;;;26.35;13.73;;;;;;;;;;6386968;27;20039;-66
2021/12/29 13:40:48;;;;;;;28.55;15.27;;;;;;;;;;6393476;27;20051;-66
2021/12/29 13:43:53;;;;;;;25.40;13.77;;;;;;;;;;6374979;27;20051;-65
2021/12/29 13:46:58;;;;;;;26.73;14.25;;;;;;;;;;6374586;27;20047;-66
2021/12/29 13:50:10;;;;;;;22.55;11.93;;;;;;;;;;6394116;27;20110;-66
2021/12/29 13:53:14;;;;;;;25.88;12.35;;;;;;;;;;6374231;27;20030;-65
2021/12/29 13:56:18;;;;;;;19.90;11.18;;;;;;;;;;6375072;27;20140;-65
2021/12/29 13:59:23;;;;;;;22.58;11.65;;;;;;;;;;6393919;27;20042;-66
2021/12/29 14:02:27;;;;;;;23.80;11.25;;;;;;;;;;6393202;27;20057;-65
2021/12/29 14:05:38;;;;;;;27.00;11.57;;;;;;;;;;6392571;27;20121;-66
2021/12/29 14:08:42;;;;;;;23.95;12.40;;;;;;;;;;6374664;27;20125;-65
2021/12/29 14:11:45;;;;;;;22.90;11.38;;;;;;;;;;6348595;28;20043;-66
2021/12/29 14:15:00;;;;;;;25.38;12.63;;;;;;;;;;6383781;27;20042;-65
2021/12/29 14:18:16;;;;;;;25.92;12.65;;;;;;;;;;6374801;27;20095;-65
2021/12/29 14:21:21;;;;;;;23.75;12.90;;;;;;;;;;6393120;27;20039;-65
2021/12/29 14:24:26;;;;;;;25.05;13.27;;;;;;;;;;6373946;27;20062;-65
2021/12/29 14:27:33;;;;;;;32.25;14.32;;;;;;;;;;6391255;27;20042;-65
2021/12/29 14:30:38;;;;;;;30.60;14.15;;;;;;;;;;6392935;27;20042;-65
2021/12/29 14:33:46;;;;;;;27.50;13.98;;;;;;;;;;6376193;27;20131;-67
2021/12/29 14:36:49;;;;;;;;;;;;;;;;;;6392546;27;20086;-64
2021/12/29 14:39:52;;;;;;;27.83;13.55;;;;;;;;;;6393013;27;20022;-67
2021/12/29 14:42:55;;;;;;;32.53;15.50;;;;;;;;;;6393053;27;20058;-64
2021/12/29 14:46:01;;;;;;;32.55;16.52;;;;;;;;;;6367325;27;20054;-65
2021/12/29 14:49:05;;;;;;;30.90;15.63;;;;;;;;;;6348756;28;20043;-65
2021/12/29 14:52:11;;;;;;;32.65;16.52;;;;;;;;;;6348870;28;20044;-65
2021/12/29 14:55:16;;;;;;;33.33;17.13;;;;;;;;;;6349204;28;20043;-64
2021/12/29 14:58:22;;;;;;;33.10;17.58;;;;;;;;;;6366820;28;20088;-64
2021/12/29 15:01:30;;;;;;;37.08;17.85;;;;;;;;;;6367068;28;20559;-64
2021/12/29 15:04:36;;;;;;;34.08;16.05;;;;;;;;;;6347595;28;20062;-65
2021/12/29 15:07:40;;;;;;;35.42;17.27;;;;;;;;;;6366906;28;20047;-64
2021/12/29 15:10:45;;;;;;;33.22;17.05;;;;;;;;;;6348479;28;20054;-66
2021/12/29 15:13:49;;;;;;;35.42;16.80;;;;;;;;;;6348610;28;20158;-66
2021/12/29 15:16:55;;;;;;;34.88;15.90;;;;;;;;;;6350580;27;20047;-66
2021/12/29 15:19:59;;;;;;;34.42;16.02;;;;;;;;;;6392021;27;20409;-67
2021/12/29 15:23:03;;;;;;;32.03;15.93;;;;;;;;;;6391429;27;20449;-66
2021/12/29 15:26:07;;;;;;;32.78;14.63;;;;;;;;;;6376374;27;20126;-66
2021/12/29 15:29:10;;;;;;;32.88;15.63;;;;;;;;;;6382648;27;20035;-65
2021/12/29 15:32:14;;;;;;;33.22;16.13;;;;;;;;;;6399848;27;20047;-65
2021/12/29 15:35:19;;;;;;;33.00;15.93;;;;;;;;;;6394719;27;20381;-65
2021/12/29 15:38:24;;;;;;;32.28;16.10;;;;;;;;;;6376272;27;20035;-65
2021/12/29 15:41:29;;;;;;;33.85;16.58;;;;;;;;;;6374867;27;20071;-66
2021/12/29 15:44:32;;;;;;;34.30;16.13;;;;;;;;;;6375406;27;20107;-66
2021/12/29 15:47:38;;;;;;;;;;;;;;;;;;6394936;27;20062;-65
2021/12/29 15:50:44;;;;;;;29.77;14.45;;;;;;;;;;6395546;27;19926;-66
2021/12/29 15:53:50;;;;;;;33.60;15.68;;;;;;;;;;6377924;27;20042;-66
2021/12/29 15:56:53;;;;;;;35.33;16.30;;;;;;;;;;6377911;27;20424;-65
2021/12/29 15:59:56;;;;;;;35.92;17.23;;;;;;;;;;6396710;27;20049;-65
2021/12/29 16:03:01;;;;;;;37.13;16.90;;;;;;;;;;6395746;27;20054;-65
2021/12/29 16:06:08;;;;;;;35.70;17.05;;;;;;;;;;6377687;27;20050;-65
2021/12/29 16:09:11;;;;;;;39.95;18.58;;;;;;;;;;6396693;27;20126;-65
2021/12/29 16:12:14;;;;;;;40.13;18.02;;;;;;;;;;6395756;27;20038;-65
2021/12/29 16:15:18;;;;;;;38.35;16.38;;;;;;;;;;6377488;27;20544;-66
2021/12/29 16:18:21;;;;;;;37.80;17.60;;;;;;;;;;6396714;27;20171;-66
2021/12/29 16:21:26;;;;;;;37.30;18.13;;;;;;;;;;6395607;27;20114;-65
2021/12/29 16:24:29;;;;;;;35.55;16.67;;;;;;;;;;6395689;27;20058;-66
2021/12/29 16:27:33;;;;;;;54.17;26.40;;;;;;;;;;6376677;27;20791;-66
2021/12/29 16:30:38;;;;;;;36.20;16.13;;;;;;;;;;6396033;27;20057;-65
2021/12/29 16:33:41;;;;;;;39.20;17.60;;;;;;;;;;6375782;27;20345;-65
2021/12/29 16:36:48;;;;;;;33.83;17.90;;;;;;;;;;6376785;27;20294;-65
2021/12/29 16:39:51;;;;;;;38.95;18.08;;;;;;;;;;6395508;27;20297;-66
2021/12/29 16:42:55;;;;;;;37.33;18.33;;;;;;;;;;6376304;27;20058;-65
2021/12/29 16:45:58;;;;;;;39.67;18.95;;;;;;;;;;6376923;27;20073;-65
2021/12/29 16:49:01;;;;;;;40.03;19.65;;;;;;;;;;6376457;27;20044;-65
2021/12/29 16:52:06;;;;;;;39.50;19.33;;;;;;;;;;6395519;27;20042;-65
2021/12/29 16:55:10;;;;;;;39.63;20.67;;;;;;;;;;6376000;27;20487;-65
2021/12/29 16:58:16;;;;;;;39.47;20.48;;;;;;;;;;6395348;27;20038;-66
2021/12/29 17:01:21;;;;;;;36.83;18.60;;;;;;;;;;6377504;27;20051;-65
2021/12/29 17:04:25;;;;;;;38.15;19.10;;;;;;;;;;6394466;27;20050;-66
2021/12/29 17:07:29;;;;;;;36.90;18.77;;;;;;;;;;6394936;27;20423;-66
2021/12/29 17:10:33;;;;;;;41.38;19.23;;;;;;;;;;6395119;27;20043;-66
2021/12/29 17:13:35;;;;;;;34.15;18.33;;;;;;;;;;6394442;27;20626;-65
2021/12/29 17:16:40;;;;;;;39.83;20.58;;;;;;;;;;6394766;27;20047;-65
2021/12/29 17:19:43;;;;;;;40.38;20.02;;;;;;;;;;6394160;27;20066;-65
2021/12/29 17:22:48;;;;;;;38.63;19.30;;;;;;;;;;6395125;27;20111;-66
2021/12/29 17:25:56;;;;;;;38.10;18.87;;;;;;;;;;6375540;27;20046;-65
2021/12/29 17:29:00;;;;;;;37.35;20.05;;;;;;;;;;6394075;27;20043;-64
2021/12/29 17:32:04;;;;;;;39.17;19.02;;;;;;;;;;6394642;27;20377;-65
2021/12/29 17:35:08;;;;;;;37.53;17.33;;;;;;;;;;6375360;27;20043;-65
2021/12/29 17:38:14;;;;;;;32.83;16.77;;;;;;;;;;6394042;27;20123;-65
2021/12/29 17:41:20;;;;;;;33.20;16.45;;;;;;;;;;6375108;27;20058;-65
2021/12/29 17:44:23;;;;;;;34.97;16.35;;;;;;;;;;6393945;27;20137;-65
2021/12/29 17:47:31;;;;;;;;;;;;;;;;;;6393854;27;20056;-65
2021/12/29 17:50:34;;;;;;;30.30;14.25;;;;;;;;;;6393836;27;19971;-65
2021/12/29 17:53:40;;;;;;;29.48;14.80;;;;;;;;;;6394408;27;20050;-65
2021/12/29 17:56:45;;;;;;;28.48;13.40;;;;;;;;;;6393509;27;20163;-66
2021/12/29 17:59:49;;;;;;;30.23;14.30;;;;;;;;;;6393937;27;20038;-65
2021/12/29 18:02:53;;;;;;;28.77;14.48;;;;;;;;;;6393562;27;20042;-65